Lake Odessa, Michigan
Current Conditions -  °F | °C
As of 10:13 PM on Monday 26 Jan 2015 (Local Time) from KY70 Reporting Station
Broken Clouds Broken Clouds  
Wind Chill: 10°   Ceiling: 10000
Heat Index: 18°   Visibility: 10mi
Dew Point: 13°   Wind: 6mph
Humidity: 78%   Direction: 70°ENE
Pressure: 29.95"   Gusts: NA
Location:  42.78°N, 85.14°W
Report Text: KY70 270313Z AUTO 07005KT 10SM SCT065 BKN100 M08/M11 A2995 RMK AO2 T10761108
Loading
Personal Weather Stations






























Interactive Weather Map New forecast layout! Learn more

10-Day Weather Forecast

Advertisements
Track Severe Weather on mobile